createdAt,value
2017-03-31T00:00:24.552Z,13.99
2017-03-31T00:01:11.968Z,13.99
2017-03-31T00:01:52.533Z,13.99
2017-03-31T00:02:33.119Z,13.99
2017-03-31T00:03:13.719Z,13.9
2017-03-31T00:03:54.297Z,13.95
2017-03-31T00:04:34.865Z,13.99
2017-03-31T00:05:15.437Z,13.95
2017-03-31T00:05:56.022Z,13.9
2017-03-31T00:06:36.591Z,13.97
2017-03-31T00:07:17.166Z,13.99
2017-03-31T00:07:57.745Z,13.92
2017-03-31T00:08:38.320Z,13.9
2017-03-31T00:09:18.891Z,13.93
2017-03-31T00:09:59.467Z,13.87
2017-03-31T00:10:40.087Z,13.92
2017-03-31T00:11:20.706Z,13.95
2017-03-31T00:12:01.315Z,13.87
2017-03-31T00:12:42.070Z,13.95
2017-03-31T00:13:22.810Z,13.85
2017-03-31T00:14:03.396Z,13.85
2017-03-31T00:14:43.984Z,13.86
2017-03-31T00:15:24.594Z,13.9
2017-03-31T00:16:05.237Z,13.89
2017-03-31T00:16:45.866Z,13.9
2017-03-31T00:17:26.446Z,13.9
2017-03-31T00:18:07.018Z,13.89
2017-03-31T00:18:47.590Z,13.92
2017-03-31T00:19:28.163Z,13.87
2017-03-31T00:20:08.772Z,13.89
2017-03-31T00:20:49.362Z,13.83
2017-03-31T00:21:29.971Z,13.87
2017-03-31T00:22:10.551Z,13.9
2017-03-31T00:22:51.116Z,13.92
2017-03-31T00:23:31.727Z,13.92
2017-03-31T00:24:12.319Z,13.85
2017-03-31T00:24:52.892Z,13.92
2017-03-31T00:25:33.480Z,13.89
2017-03-31T00:26:14.073Z,13.95
2017-03-31T00:26:54.665Z,13.93
2017-03-31T00:27:35.238Z,13.92
2017-03-31T00:28:15.842Z,13.83
2017-03-31T00:28:56.443Z,13.87
2017-03-31T00:29:37.031Z,13.93
2017-03-31T00:30:17.619Z,13.79
2017-03-31T00:30:58.253Z,13.79
2017-03-31T00:31:38.827Z,13.81
2017-03-31T00:32:19.420Z,13.83
2017-03-31T00:33:00.009Z,13.78
2017-03-31T00:33:40.647Z,13.78
2017-03-31T00:34:21.229Z,13.75
2017-03-31T00:35:01.814Z,13.75
2017-03-31T00:35:42.441Z,13.75
2017-03-31T00:36:23.009Z,13.68
2017-03-31T00:37:03.618Z,13.71
2017-03-31T00:37:44.196Z,13.77
2017-03-31T00:38:24.766Z,13.68
2017-03-31T00:39:05.337Z,13.77
2017-03-31T00:39:45.901Z,13.68
2017-03-31T00:40:26.469Z,13.75
2017-03-31T00:41:07.075Z,13.78
2017-03-31T00:41:47.639Z,13.72
2017-03-31T00:42:28.205Z,13.75
2017-03-31T00:43:08.774Z,13.7
2017-03-31T00:43:49.354Z,13.77
2017-03-31T00:44:29.931Z,13.7
2017-03-31T00:45:10.548Z,13.7
2017-03-31T00:45:51.125Z,13.71
2017-03-31T00:46:31.692Z,13.71
2017-03-31T00:47:12.301Z,13.71
2017-03-31T00:47:52.871Z,13.74
2017-03-31T00:48:33.440Z,13.71
2017-03-31T00:49:14.015Z,13.7
2017-03-31T00:49:54.616Z,13.72
2017-03-31T00:50:35.175Z,13.6
2017-03-31T00:51:15.743Z,13.67
2017-03-31T00:51:56.357Z,13.7
2017-03-31T00:52:36.942Z,13.6
2017-03-31T00:53:17.535Z,13.7
2017-03-31T00:53:58.139Z,13.56
2017-03-31T00:54:38.716Z,13.7
2017-03-31T00:55:19.290Z,13.56
2017-03-31T00:55:59.900Z,13.62
2017-03-31T00:56:40.499Z,13.59
2017-03-31T00:57:21.092Z,13.6
2017-03-31T00:58:01.676Z,13.56
2017-03-31T00:58:42.233Z,13.59
2017-03-31T00:59:25.536Z,13.54
2017-03-31T01:00:06.104Z,13.57
2017-03-31T01:00:46.684Z,13.56
2017-03-31T01:01:27.264Z,13.56
2017-03-31T01:02:07.829Z,13.57
2017-03-31T01:02:48.398Z,13.57
2017-03-31T01:03:29.025Z,13.54
2017-03-31T01:04:09.592Z,13.54
2017-03-31T01:04:50.232Z,13.54
2017-03-31T01:05:30.788Z,13.5
2017-03-31T01:06:11.366Z,13.59
2017-03-31T01:06:51.965Z,13.52
2017-03-31T01:07:32.542Z,13.52
2017-03-31T01:08:13.127Z,13.56
2017-03-31T01:08:53.713Z,13.53
2017-03-31T01:09:34.318Z,13.52
2017-03-31T01:10:14.860Z,13.56
2017-03-31T01:10:55.441Z,13.57
2017-03-31T01:11:36.057Z,13.56
2017-03-31T01:12:16.670Z,13.5
2017-03-31T01:12:57.250Z,13.57
2017-03-31T01:13:37.811Z,13.44
2017-03-31T01:14:18.461Z,13.57
2017-03-31T01:14:59.050Z,13.59
2017-03-31T01:15:39.656Z,13.49
2017-03-31T01:16:20.221Z,13.52
2017-03-31T01:17:00.798Z,13.59
2017-03-31T01:17:41.366Z,13.52
2017-03-31T01:18:21.977Z,13.42
2017-03-31T01:19:02.536Z,13.54
2017-03-31T01:19:43.193Z,13.46
2017-03-31T01:20:23.767Z,13.5
2017-03-31T01:21:04.366Z,13.46
2017-03-31T01:21:44.956Z,13.41
2017-03-31T01:22:25.540Z,13.47
2017-03-31T01:23:06.118Z,13.42
2017-03-31T01:23:46.678Z,13.49
2017-03-31T01:24:27.245Z,13.5
2017-03-31T01:25:07.809Z,13.5
2017-03-31T01:25:48.401Z,13.53
2017-03-31T01:26:28.987Z,13.49
2017-03-31T01:27:09.549Z,13.49
2017-03-31T01:27:50.130Z,13.46
2017-03-31T01:28:30.708Z,13.5
2017-03-31T01:29:11.283Z,13.42
2017-03-31T01:29:51.856Z,13.5
2017-03-31T01:30:32.453Z,13.39
2017-03-31T01:31:13.047Z,13.49
2017-03-31T01:31:53.636Z,13.46
2017-03-31T01:32:34.209Z,13.39
2017-03-31T01:33:14.839Z,13.38
2017-03-31T01:33:55.444Z,13.47
2017-03-31T01:34:36.017Z,13.44
2017-03-31T01:35:16.599Z,13.44
2017-03-31T01:35:57.206Z,13.52
2017-03-31T01:36:37.819Z,13.39
2017-03-31T01:37:18.388Z,13.39
2017-03-31T01:37:58.973Z,13.35
2017-03-31T01:38:39.557Z,13.38
2017-03-31T01:39:20.129Z,13.41
2017-03-31T01:40:00.694Z,13.33
2017-03-31T01:40:41.286Z,13.37
2017-03-31T01:41:21.892Z,13.35
2017-03-31T01:42:02.481Z,13.39
2017-03-31T01:42:43.048Z,13.42
2017-03-31T01:43:23.645Z,13.41
2017-03-31T01:44:04.227Z,13.37
2017-03-31T01:44:44.797Z,13.42
2017-03-31T01:45:25.377Z,13.39
2017-03-31T01:46:05.994Z,13.41
2017-03-31T01:46:46.582Z,13.38
2017-03-31T01:47:27.163Z,13.41
2017-03-31T01:48:07.739Z,13.44
2017-03-31T01:48:48.373Z,13.35
2017-03-31T01:49:28.950Z,13.38
2017-03-31T01:50:09.573Z,13.42
2017-03-31T01:50:50.160Z,13.39
2017-03-31T01:51:30.746Z,13.35
2017-03-31T01:52:11.375Z,13.42
2017-03-31T01:52:51.964Z,13.31
2017-03-31T01:53:32.562Z,13.33
2017-03-31T01:54:13.165Z,13.31
2017-03-31T01:54:53.762Z,13.31
2017-03-31T01:55:34.370Z,13.37
2017-03-31T01:56:14.967Z,13.39
2017-03-31T01:56:55.569Z,13.37
2017-03-31T01:57:36.138Z,13.35
2017-03-31T01:58:16.722Z,13.35
2017-03-31T01:58:57.343Z,13.33
2017-03-31T01:59:37.927Z,13.33
2017-03-31T02:00:18.495Z,13.39
2017-03-31T02:00:59.103Z,13.35
2017-03-31T02:01:39.671Z,13.31
2017-03-31T02:02:20.281Z,13.39
2017-03-31T02:03:00.877Z,13.39
2017-03-31T02:03:41.473Z,13.31
2017-03-31T02:04:22.052Z,13.31
2017-03-31T02:05:02.628Z,13.28
2017-03-31T02:05:43.206Z,13.35
2017-03-31T02:06:23.780Z,13.37
2017-03-31T02:07:04.367Z,13.35
2017-03-31T02:07:44.956Z,13.33
2017-03-31T02:08:25.522Z,13.33
2017-03-31T02:09:06.094Z,13.38
2017-03-31T02:09:46.676Z,13.31
2017-03-31T02:10:27.255Z,13.3
2017-03-31T02:11:07.857Z,13.33
2017-03-31T02:11:48.441Z,13.31
2017-03-31T02:12:29.043Z,13.33
2017-03-31T02:13:09.646Z,13.35
2017-03-31T02:13:50.232Z,13.28
2017-03-31T02:14:30.822Z,13.2
2017-03-31T02:15:11.395Z,13.19
2017-03-31T02:15:51.981Z,13.3
2017-03-31T02:16:32.561Z,13.31
2017-03-31T02:17:13.128Z,13.2
2017-03-31T02:17:53.712Z,13.3
2017-03-31T02:18:34.284Z,13.2
2017-03-31T02:19:14.895Z,13.2
2017-03-31T02:19:55.458Z,13.19
2017-03-31T02:20:36.063Z,13.2
2017-03-31T02:21:16.647Z,13.2
2017-03-31T02:21:57.206Z,13.22
2017-03-31T02:22:37.845Z,13.2
2017-03-31T02:23:18.417Z,13.27
2017-03-31T02:23:59.028Z,13.23
2017-03-31T02:24:39.614Z,13.23
2017-03-31T02:25:20.217Z,13.27
2017-03-31T02:26:00.812Z,13.23
2017-03-31T02:26:41.413Z,13.25
2017-03-31T02:27:21.992Z,13.2
2017-03-31T02:28:02.559Z,13.27
2017-03-31T02:28:43.165Z,13.3
2017-03-31T02:29:23.736Z,13.23
2017-03-31T02:30:04.334Z,13.28
2017-03-31T02:30:44.964Z,13.25
2017-03-31T02:31:25.517Z,13.2
2017-03-31T02:32:06.153Z,13.2
2017-03-31T02:32:46.729Z,13.3
2017-03-31T02:33:27.335Z,13.18
2017-03-31T02:34:07.923Z,13.2
2017-03-31T02:34:48.555Z,13.19
2017-03-31T02:35:29.142Z,13.3
2017-03-31T02:36:09.738Z,13.25
2017-03-31T02:36:50.342Z,13.28
2017-03-31T02:37:30.975Z,13.22
2017-03-31T02:38:11.551Z,13.18
2017-03-31T02:38:52.161Z,13.2
2017-03-31T02:39:32.794Z,13.22
2017-03-31T02:40:13.340Z,13.28
2017-03-31T02:40:53.927Z,13.19
2017-03-31T02:41:34.495Z,13.22
2017-03-31T02:42:15.089Z,13.16
2017-03-31T02:42:55.668Z,13.23
2017-03-31T02:43:36.233Z,13.18
2017-03-31T02:44:16.805Z,13.27
2017-03-31T02:44:57.395Z,13.16
2017-03-31T02:45:37.988Z,13.2
2017-03-31T02:46:18.568Z,13.09
2017-03-31T02:46:59.171Z,13.22
2017-03-31T02:47:39.758Z,13.23
2017-03-31T02:48:20.335Z,13.19
2017-03-31T02:49:00.932Z,13.22
2017-03-31T02:49:41.507Z,13.19
2017-03-31T02:50:22.084Z,13.19
2017-03-31T02:51:02.682Z,13.19
2017-03-31T02:51:43.279Z,13.19
2017-03-31T02:52:23.866Z,13.16
2017-03-31T02:53:04.433Z,13.18
2017-03-31T02:53:45.000Z,13.05
2017-03-31T02:54:25.587Z,13.18
2017-03-31T02:55:06.169Z,13.09
2017-03-31T02:55:46.751Z,13.08
2017-03-31T02:56:27.356Z,13.13
2017-03-31T02:57:07.960Z,13.11
2017-03-31T02:57:48.533Z,13.11
2017-03-31T02:58:29.103Z,13.15
2017-03-31T02:59:09.673Z,13.13
2017-03-31T02:59:50.272Z,13.08
2017-03-31T03:00:30.827Z,13.05
2017-03-31T03:01:11.458Z,13.13
2017-03-31T03:01:52.034Z,13.04
2017-03-31T03:02:32.647Z,13.09
2017-03-31T03:03:13.223Z,13.16
2017-03-31T03:03:53.874Z,13.11
2017-03-31T03:04:34.488Z,13.12
2017-03-31T03:05:15.097Z,13.04
2017-03-31T03:05:55.696Z,13.11
2017-03-31T03:06:36.291Z,13.16
2017-03-31T03:07:16.879Z,13.12
2017-03-31T03:07:57.469Z,13.05
2017-03-31T03:08:38.062Z,13.12
2017-03-31T03:09:18.674Z,13.08
2017-03-31T03:09:59.249Z,13.05
2017-03-31T03:10:39.829Z,13.12
2017-03-31T03:11:20.401Z,13.08
2017-03-31T03:12:00.995Z,13.08
2017-03-31T03:12:41.614Z,13.05
2017-03-31T03:13:22.219Z,13.08
2017-03-31T03:14:02.908Z,13.11
2017-03-31T03:14:43.519Z,13.04
2017-03-31T03:15:24.098Z,13.05
2017-03-31T03:16:04.697Z,13.04
2017-03-31T03:16:45.301Z,13.04
2017-03-31T03:17:25.897Z,13.05
2017-03-31T03:18:06.500Z,13.01
2017-03-31T03:18:47.078Z,13.04
2017-03-31T03:19:27.655Z,13.04
2017-03-31T03:20:08.271Z,13.05
2017-03-31T03:20:48.854Z,13
2017-03-31T03:21:29.438Z,13.04
2017-03-31T03:22:10.015Z,13.04
2017-03-31T03:22:50.610Z,13.04
2017-03-31T03:23:31.170Z,13.01
2017-03-31T03:24:11.745Z,13.08
2017-03-31T03:24:52.369Z,13.05
2017-03-31T03:25:32.963Z,13.03
2017-03-31T03:26:13.532Z,13
2017-03-31T03:26:54.111Z,13.04
2017-03-31T03:27:34.729Z,13.03
2017-03-31T03:28:15.301Z,13.03
2017-03-31T03:28:55.889Z,13.04
2017-03-31T03:29:36.473Z,13.03
2017-03-31T03:30:17.090Z,13.03
2017-03-31T03:30:57.717Z,13.01
2017-03-31T03:31:38.299Z,13.01
2017-03-31T03:32:18.862Z,12.97
2017-03-31T03:32:59.466Z,13.01
2017-03-31T03:33:40.065Z,13.03
2017-03-31T03:34:20.637Z,12.97
2017-03-31T03:35:01.212Z,13.01
2017-03-31T03:35:41.777Z,13.01
2017-03-31T03:36:22.372Z,12.95
2017-03-31T03:37:02.945Z,13.01
2017-03-31T03:37:43.515Z,12.95
2017-03-31T03:38:24.094Z,12.95
2017-03-31T03:39:04.654Z,12.98
2017-03-31T03:39:45.261Z,12.94
2017-03-31T03:40:25.878Z,12.95
2017-03-31T03:41:06.500Z,12.94
2017-03-31T03:41:47.126Z,12.97
2017-03-31T03:42:27.746Z,12.95
2017-03-31T03:43:08.316Z,12.95
2017-03-31T03:43:48.897Z,12.94
2017-03-31T03:44:29.454Z,12.94
2017-03-31T03:45:10.081Z,12.97
2017-03-31T03:45:50.671Z,12.97
2017-03-31T03:46:31.278Z,12.97
2017-03-31T03:47:11.889Z,13.01
2017-03-31T03:47:52.484Z,12.95
2017-03-31T03:48:33.271Z,12.94
2017-03-31T03:49:13.875Z,12.97
2017-03-31T03:49:54.487Z,12.97
2017-03-31T03:50:35.050Z,12.95
2017-03-31T03:51:15.641Z,12.97
2017-03-31T03:51:56.230Z,12.98
2017-03-31T03:52:36.806Z,12.98
2017-03-31T03:53:17.400Z,12.97
2017-03-31T03:53:57.983Z,12.94
2017-03-31T03:54:38.561Z,13
2017-03-31T03:55:19.180Z,12.95
2017-03-31T03:55:59.766Z,13
2017-03-31T03:56:40.343Z,12.93
2017-03-31T03:57:20.952Z,12.94
2017-03-31T03:58:01.572Z,12.93
2017-03-31T03:58:42.160Z,12.93
2017-03-31T03:59:22.775Z,13
2017-03-31T04:00:03.360Z,12.94
2017-03-31T04:00:48.976Z,12.91
2017-03-31T04:01:34.503Z,12.93
2017-03-31T04:02:17.072Z,12.97
2017-03-31T04:02:57.645Z,12.93
2017-03-31T04:03:38.254Z,12.97
2017-03-31T04:04:18.806Z,12.91
2017-03-31T04:04:59.393Z,12.94
2017-03-31T04:05:39.955Z,13.01
2017-03-31T04:06:20.560Z,12.9
2017-03-31T04:07:01.123Z,12.94
2017-03-31T04:07:41.716Z,12.9
2017-03-31T04:08:22.319Z,12.85
2017-03-31T04:09:02.902Z,12.9
2017-03-31T04:09:43.533Z,12.9
2017-03-31T04:10:24.096Z,12.93
2017-03-31T04:11:04.669Z,12.9
2017-03-31T04:11:45.258Z,12.93
2017-03-31T04:12:25.855Z,12.94
2017-03-31T04:13:06.439Z,12.87
2017-03-31T04:13:47.033Z,12.97
2017-03-31T04:14:27.617Z,12.8
2017-03-31T04:15:08.224Z,12.87
2017-03-31T04:15:48.817Z,12.79
2017-03-31T04:16:29.399Z,12.87
2017-03-31T04:17:09.973Z,12.86
2017-03-31T04:17:50.578Z,12.83
2017-03-31T04:18:31.233Z,12.8
2017-03-31T04:19:11.791Z,12.83
2017-03-31T04:19:52.378Z,12.8
2017-03-31T04:20:32.962Z,12.86
2017-03-31T04:21:13.544Z,12.8
2017-03-31T04:21:54.134Z,12.87
2017-03-31T04:22:34.710Z,12.8
2017-03-31T04:23:15.276Z,12.83
2017-03-31T04:23:55.878Z,12.78
2017-03-31T04:24:36.471Z,12.87
2017-03-31T04:25:17.099Z,12.72
2017-03-31T04:25:57.695Z,12.82
2017-03-31T04:26:38.299Z,12.86
2017-03-31T04:27:18.876Z,12.86
2017-03-31T04:27:59.641Z,12.82
2017-03-31T04:28:40.274Z,12.82
2017-03-31T04:29:20.867Z,12.82
2017-03-31T04:30:01.464Z,12.76
2017-03-31T04:30:42.099Z,12.8
2017-03-31T04:31:22.677Z,12.86
2017-03-31T04:32:03.247Z,12.76
2017-03-31T04:32:43.894Z,12.83
2017-03-31T04:33:24.458Z,12.83
2017-03-31T04:34:05.029Z,12.86
2017-03-31T04:34:45.650Z,12.76
2017-03-31T04:35:26.256Z,12.78
2017-03-31T04:36:06.849Z,12.8
2017-03-31T04:36:47.472Z,12.82
2017-03-31T04:37:28.050Z,12.8
2017-03-31T04:38:08.636Z,12.7
2017-03-31T04:38:49.238Z,12.76
2017-03-31T04:39:29.843Z,12.83
2017-03-31T04:40:10.431Z,12.86
2017-03-31T04:40:51.041Z,12.82
2017-03-31T04:41:31.632Z,12.83
2017-03-31T04:42:12.219Z,12.82
2017-03-31T04:42:52.831Z,12.82
2017-03-31T04:43:33.417Z,12.83
2017-03-31T04:44:14.014Z,12.85
2017-03-31T04:44:54.635Z,12.8
2017-03-31T04:45:35.176Z,12.86
2017-03-31T04:46:15.748Z,12.83
2017-03-31T04:46:56.318Z,12.83
2017-03-31T04:47:36.935Z,12.85
2017-03-31T04:48:17.520Z,12.79
2017-03-31T04:48:58.094Z,12.82
2017-03-31T04:49:38.663Z,12.83
2017-03-31T04:50:19.245Z,12.83
2017-03-31T04:50:59.837Z,12.78
2017-03-31T04:51:40.426Z,12.82
2017-03-31T04:52:21.015Z,12.82
2017-03-31T04:53:01.601Z,12.83
2017-03-31T04:53:42.202Z,12.82
2017-03-31T04:54:22.769Z,12.79
2017-03-31T04:55:08.361Z,12.82
2017-03-31T04:57:06.984Z,12.83
2017-03-31T04:57:47.569Z,12.79
2017-03-31T04:58:30.933Z,12.87
2017-03-31T04:59:12.050Z,12.8
2017-03-31T04:59:52.616Z,12.83
2017-03-31T05:00:33.527Z,12.85
2017-03-31T05:01:14.925Z,12.85
2017-03-31T05:01:56.403Z,12.82
2017-03-31T05:02:48.242Z,12.86
2017-03-31T05:03:42.614Z,12.85
2017-03-31T05:04:26.516Z,12.93
2017-03-31T05:05:08.930Z,12.93
2017-03-31T05:05:49.502Z,12.86
2017-03-31T05:06:30.086Z,12.93
2017-03-31T05:07:10.661Z,12.94
2017-03-31T05:07:51.256Z,12.94
2017-03-31T05:08:31.867Z,12.91
2017-03-31T05:09:12.433Z,12.9
2017-03-31T05:09:53.038Z,12.86
2017-03-31T05:10:33.608Z,12.93
2017-03-31T05:11:14.188Z,12.93
2017-03-31T05:11:54.771Z,12.9
2017-03-31T05:12:35.336Z,12.94
2017-03-31T05:13:15.905Z,12.91
2017-03-31T05:13:56.478Z,12.91
2017-03-31T05:14:37.045Z,13.08
2017-03-31T05:15:17.611Z,13.2
2017-03-31T05:15:58.301Z,13.37
2017-03-31T05:16:39.162Z,13.49
2017-03-31T05:17:19.743Z,13.57
2017-03-31T05:18:00.334Z,13.62
2017-03-31T05:18:40.915Z,13.67
2017-03-31T05:19:21.508Z,13.7
2017-03-31T05:20:02.106Z,13.72
2017-03-31T05:20:42.678Z,13.57
2017-03-31T05:21:23.248Z,13.68
2017-03-31T05:22:03.854Z,13.54
2017-03-31T05:22:44.432Z,13.5
2017-03-31T05:23:25.020Z,13.41
2017-03-31T05:24:05.597Z,13.53
2017-03-31T05:24:46.191Z,13.33
2017-03-31T05:25:26.796Z,13.42
2017-03-31T05:26:07.378Z,13.41
2017-03-31T05:26:47.952Z,13.39
2017-03-31T05:27:28.535Z,13.41
2017-03-31T05:28:09.113Z,13.44
2017-03-31T05:28:49.690Z,13.41
2017-03-31T05:29:30.319Z,13.38
2017-03-31T05:30:10.897Z,13.38
2017-03-31T05:30:51.530Z,13.37
2017-03-31T05:31:32.126Z,13.31
2017-03-31T05:32:12.696Z,13.38
2017-03-31T05:32:53.288Z,13.37
2017-03-31T05:33:33.854Z,13.35
2017-03-31T05:34:14.427Z,13.41
2017-03-31T05:34:55.029Z,13.35
2017-03-31T05:35:35.607Z,13.35
2017-03-31T05:36:16.235Z,13.3
2017-03-31T05:36:56.836Z,13.28
2017-03-31T05:37:37.429Z,13.31
2017-03-31T05:38:18.040Z,13.3
2017-03-31T05:38:58.631Z,13.37
2017-03-31T05:39:39.209Z,13.33
2017-03-31T05:40:19.813Z,13.37
2017-03-31T05:41:00.427Z,13.31
2017-03-31T05:41:41.011Z,13.35
2017-03-31T05:42:21.603Z,13.33
2017-03-31T05:43:02.206Z,13.31
2017-03-31T05:43:42.801Z,13.33
2017-03-31T05:44:23.393Z,13.3
2017-03-31T05:45:03.992Z,13.31
2017-03-31T05:45:44.591Z,13.35
2017-03-31T05:46:25.164Z,13.23
2017-03-31T05:47:05.771Z,13.33
2017-03-31T05:47:46.393Z,13.33
2017-03-31T05:48:27.026Z,13.33
2017-03-31T05:49:07.631Z,13.33
2017-03-31T05:49:48.233Z,13.3
2017-03-31T05:50:28.867Z,13.3
2017-03-31T05:51:09.457Z,13.35
2017-03-31T05:51:50.048Z,13.35
2017-03-31T05:52:30.664Z,13.3
2017-03-31T05:53:11.282Z,13.35
2017-03-31T05:53:51.867Z,13.37
2017-03-31T05:54:32.497Z,13.3
2017-03-31T05:55:13.065Z,13.31
2017-03-31T05:55:53.646Z,13.33
2017-03-31T05:56:34.326Z,13.37
2017-03-31T05:57:15.603Z,13.33
2017-03-31T05:57:56.193Z,13.28
2017-03-31T05:58:36.819Z,13.3
2017-03-31T05:59:17.447Z,13.3
2017-03-31T05:59:58.047Z,13.23
2017-03-31T06:00:38.629Z,13.3
2017-03-31T06:01:19.232Z,13.31
2017-03-31T06:01:59.832Z,13.33
2017-03-31T06:02:40.431Z,13.31
2017-03-31T06:03:21.021Z,13.31
2017-03-31T06:04:01.649Z,13.31
2017-03-31T06:04:42.235Z,13.33
2017-03-31T06:05:22.823Z,13.33
2017-03-31T06:06:03.430Z,13.33
2017-03-31T06:06:44.023Z,13.35
2017-03-31T06:07:24.648Z,13.35
2017-03-31T06:08:05.281Z,13.33
2017-03-31T06:08:45.855Z,13.42
2017-03-31T06:09:26.424Z,13.37
2017-03-31T06:10:07.042Z,13.33
2017-03-31T06:10:47.642Z,13.37
2017-03-31T06:11:28.234Z,13.3
2017-03-31T06:12:08.872Z,13.44
2017-03-31T06:12:49.461Z,13.41
2017-03-31T06:13:30.044Z,13.39
2017-03-31T06:14:10.632Z,13.38
2017-03-31T06:14:51.229Z,13.33
2017-03-31T06:15:31.829Z,13.39
2017-03-31T06:16:12.417Z,13.35
2017-03-31T06:16:53.003Z,13.41
2017-03-31T06:17:33.580Z,13.35
2017-03-31T06:18:14.158Z,13.42
2017-03-31T06:18:54.732Z,13.33
2017-03-31T06:19:35.305Z,13.39
2017-03-31T06:20:15.874Z,13.39
2017-03-31T06:20:56.452Z,13.38
2017-03-31T06:21:37.036Z,13.38
2017-03-31T06:22:17.637Z,13.44
2017-03-31T06:22:58.244Z,13.37
2017-03-31T06:23:38.818Z,13.37
2017-03-31T06:24:19.404Z,13.42
2017-03-31T06:24:59.992Z,13.37
2017-03-31T06:25:40.585Z,13.41
2017-03-31T06:26:21.177Z,13.42
2017-03-31T06:27:01.757Z,13.37
2017-03-31T06:27:42.354Z,13.47
2017-03-31T06:28:22.939Z,13.44
2017-03-31T06:29:03.515Z,13.46
2017-03-31T06:29:44.088Z,13.46
2017-03-31T06:30:24.663Z,13.47
2017-03-31T06:31:05.294Z,13.46
2017-03-31T06:31:45.876Z,13.47
2017-03-31T06:32:26.476Z,13.46
2017-03-31T06:33:07.076Z,13.49
2017-03-31T06:33:47.657Z,13.41
2017-03-31T06:34:28.285Z,13.57
2017-03-31T06:35:09.082Z,13.5
2017-03-31T06:35:49.743Z,13.62
2017-03-31T06:36:30.334Z,13.53
2017-03-31T06:37:10.989Z,13.59
2017-03-31T06:37:51.658Z,13.63
2017-03-31T06:38:32.248Z,13.68
2017-03-31T06:39:12.838Z,13.65
2017-03-31T06:39:53.426Z,13.7
2017-03-31T06:40:34.034Z,13.7
2017-03-31T06:41:14.610Z,13.7
2017-03-31T06:41:55.221Z,13.81
2017-03-31T06:42:35.811Z,13.89
2017-03-31T06:43:16.408Z,13.92
2017-03-31T06:43:57.016Z,13.95
2017-03-31T06:44:37.609Z,14.05
2017-03-31T06:45:18.190Z,14.15
2017-03-31T06:45:58.781Z,14.3
2017-03-31T06:46:39.364Z,14.36
2017-03-31T06:47:19.948Z,14.55
2017-03-31T06:48:00.536Z,14.6
2017-03-31T06:48:41.207Z,14.69
2017-03-31T06:49:21.785Z,14.91
2017-03-31T06:50:02.396Z,14.97
2017-03-31T06:50:43.009Z,15.09
2017-03-31T06:51:23.615Z,15.24
2017-03-31T06:52:04.190Z,15.27
2017-03-31T06:52:44.815Z,15.36
2017-03-31T06:53:25.410Z,15.37
2017-03-31T06:54:06.016Z,15.51
2017-03-31T06:54:46.620Z,15.61
2017-03-31T06:55:27.214Z,15.77
2017-03-31T06:56:07.825Z,15.82
2017-03-31T06:56:48.438Z,15.86
2017-03-31T06:57:29.036Z,15.97
2017-03-31T06:58:09.628Z,16.05
2017-03-31T06:58:50.213Z,16.05
2017-03-31T06:59:30.814Z,16.2
2017-03-31T07:00:11.418Z,16.32
2017-03-31T07:00:52.010Z,16.46
2017-03-31T07:01:32.616Z,16.58
2017-03-31T07:02:13.255Z,16.68
2017-03-31T07:02:53.861Z,16.72
2017-03-31T07:03:34.491Z,16.69
2017-03-31T07:04:15.116Z,16.83
2017-03-31T07:04:55.732Z,16.79
2017-03-31T07:05:36.335Z,16.93
2017-03-31T07:06:16.954Z,17.04
2017-03-31T07:06:57.569Z,17.01
2017-03-31T07:07:38.202Z,17.23
2017-03-31T07:08:18.813Z,17.26
2017-03-31T07:08:59.412Z,17.16
2017-03-31T07:09:40.064Z,17.24
2017-03-31T07:10:20.697Z,17.3
2017-03-31T07:11:01.293Z,17.39
2017-03-31T07:11:41.899Z,17.41
2017-03-31T07:12:22.512Z,17.42
2017-03-31T07:13:03.130Z,17.57
2017-03-31T07:13:43.736Z,17.52
2017-03-31T07:14:24.338Z,17.74
2017-03-31T07:15:04.962Z,17.68
2017-03-31T07:15:45.556Z,17.79
2017-03-31T07:16:26.152Z,17.83
2017-03-31T07:17:06.770Z,17.89
2017-03-31T07:17:47.401Z,17.92
2017-03-31T07:18:28.033Z,17.94
2017-03-31T07:19:08.616Z,17.97
2017-03-31T07:19:49.209Z,17.92
2017-03-31T07:20:29.826Z,17.94
2017-03-31T07:21:10.432Z,17.92
2017-03-31T07:21:51.063Z,17.92
2017-03-31T07:22:31.688Z,18.01
2017-03-31T07:23:12.322Z,18.01
2017-03-31T07:23:52.930Z,18.07
2017-03-31T07:24:33.536Z,18.05
2017-03-31T07:25:14.155Z,18.16
2017-03-31T07:25:54.786Z,18.13
2017-03-31T07:26:35.390Z,18.19
2017-03-31T07:27:16.001Z,18.16
2017-03-31T07:27:56.595Z,18.16
2017-03-31T07:28:37.191Z,18.28
2017-03-31T07:29:17.778Z,18.26
2017-03-31T07:29:58.384Z,18.28
2017-03-31T07:30:38.998Z,18.35
2017-03-31T07:31:19.602Z,18.37
2017-03-31T07:32:00.203Z,18.4
2017-03-31T07:32:40.856Z,18.45
2017-03-31T07:33:21.446Z,18.55
2017-03-31T07:34:02.057Z,18.53
2017-03-31T07:34:42.665Z,18.55
2017-03-31T07:35:23.265Z,18.6
2017-03-31T07:36:03.858Z,18.62
2017-03-31T07:36:44.453Z,18.7
2017-03-31T07:37:25.054Z,18.73
2017-03-31T07:38:05.693Z,18.71
2017-03-31T07:38:46.292Z,18.74
2017-03-31T07:39:26.901Z,18.75
2017-03-31T07:40:07.514Z,18.77
2017-03-31T07:40:48.106Z,18.83
2017-03-31T07:41:28.713Z,18.89
2017-03-31T07:42:09.351Z,19.02
2017-03-31T07:42:49.951Z,19.04
2017-03-31T07:43:30.556Z,18.99
2017-03-31T07:44:11.169Z,19.08
2017-03-31T07:44:51.758Z,19.04
2017-03-31T07:45:32.377Z,19.14
2017-03-31T07:46:12.974Z,19.19
2017-03-31T07:46:53.607Z,19.22
2017-03-31T07:47:34.210Z,19.31
2017-03-31T07:48:14.821Z,19.4
2017-03-31T07:48:55.415Z,19.44
2017-03-31T07:49:36.045Z,19.44
2017-03-31T07:50:16.671Z,19.48
2017-03-31T07:50:57.270Z,19.62
2017-03-31T07:51:37.859Z,19.55
2017-03-31T07:52:18.463Z,19.64
2017-03-31T07:52:59.054Z,19.74
2017-03-31T07:53:39.690Z,19.71
2017-03-31T07:54:20.278Z,19.84
2017-03-31T07:55:00.875Z,19.89
2017-03-31T07:55:41.478Z,19.92
2017-03-31T07:56:22.083Z,19.85
2017-03-31T07:57:02.685Z,19.92
2017-03-31T07:57:43.347Z,20.07
2017-03-31T07:58:23.981Z,20.03
2017-03-31T07:59:04.581Z,20.13
2017-03-31T07:59:45.205Z,20.14
2017-03-31T08:00:25.834Z,20.21
2017-03-31T08:01:06.424Z,20.11
2017-03-31T08:01:47.062Z,20.34
2017-03-31T08:02:27.659Z,20.29
2017-03-31T08:03:08.266Z,20.29
2017-03-31T08:03:48.914Z,20.4
2017-03-31T08:04:29.586Z,20.43
2017-03-31T08:05:10.232Z,20.48
2017-03-31T08:05:50.875Z,20.5
2017-03-31T08:06:31.489Z,20.4
2017-03-31T08:07:12.124Z,20.37
2017-03-31T08:07:52.737Z,20.37
2017-03-31T08:08:33.394Z,20.37
2017-03-31T08:09:14.039Z,20.43
2017-03-31T08:09:54.651Z,20.4
2017-03-31T08:10:35.302Z,20.41
2017-03-31T08:11:16.051Z,20.37
2017-03-31T08:11:56.611Z,20.32
2017-03-31T08:12:37.259Z,20.41
2017-03-31T08:13:17.880Z,20.39
2017-03-31T08:13:58.475Z,20.34
2017-03-31T08:14:39.071Z,20.28
2017-03-31T08:15:19.669Z,20.31
2017-03-31T08:16:00.315Z,20.26
2017-03-31T08:16:40.907Z,20.26
2017-03-31T08:17:21.624Z,20.24
2017-03-31T08:18:02.223Z,20.26
2017-03-31T08:18:42.817Z,20.24
2017-03-31T08:19:23.416Z,20.13
2017-03-31T08:20:04.037Z,20.14
2017-03-31T08:20:44.645Z,20.16
2017-03-31T08:21:25.302Z,20.1
2017-03-31T08:22:05.892Z,20.13
2017-03-31T08:22:46.495Z,20.06
2017-03-31T08:23:27.091Z,20.03
2017-03-31T08:24:07.672Z,19.94
2017-03-31T08:24:48.297Z,19.89
2017-03-31T08:25:28.900Z,19.85
2017-03-31T08:26:09.537Z,19.86
2017-03-31T08:26:50.137Z,19.81
2017-03-31T08:27:30.737Z,19.81
2017-03-31T08:28:11.385Z,19.67
2017-03-31T08:28:51.979Z,19.62
2017-03-31T08:29:32.613Z,19.64
2017-03-31T08:30:13.242Z,19.59
2017-03-31T08:30:53.828Z,19.59
2017-03-31T08:31:34.404Z,19.49
2017-03-31T08:32:15.044Z,19.54
2017-03-31T08:32:55.704Z,19.51
2017-03-31T08:33:36.289Z,19.55
2017-03-31T08:34:16.887Z,19.56
2017-03-31T08:34:57.497Z,19.54
2017-03-31T08:35:38.085Z,19.56
2017-03-31T08:36:18.678Z,19.47
2017-03-31T08:36:59.264Z,19.41
2017-03-31T08:37:39.881Z,19.41
2017-03-31T08:38:20.498Z,19.51
2017-03-31T08:39:01.099Z,19.49
2017-03-31T08:39:41.707Z,19.49
2017-03-31T08:40:22.324Z,19.34
2017-03-31T08:41:02.954Z,19.4
2017-03-31T08:41:43.542Z,19.51
2017-03-31T08:42:24.152Z,19.51
2017-03-31T08:43:04.781Z,19.49
2017-03-31T08:43:45.394Z,19.47
2017-03-31T08:44:26.006Z,19.45
2017-03-31T08:45:06.619Z,19.52
2017-03-31T08:45:47.245Z,19.44
2017-03-31T08:46:27.825Z,19.47
2017-03-31T08:47:08.452Z,19.52
2017-03-31T08:47:49.041Z,19.55